Main page
METAR-TAF:

METAR-TAF

Airports :

Forlì Airport

Forlì, Italy

latitude: 44-12N, longitude: 012-04E, elevation: 27 m

Current weather observation

The report was made 57 minutes ago, at 11:50 UTC
Wind 1 kt from variable directions
Temperature 21°C
Humidity 69%
Pressure 1016 hPa
Visibility: 7000 m
Few clouds at a height of 2000 ft

METAR: LIPK 181150Z VRB01KT 7000 FEW020 21/15 Q1016

Time: 14:47 (12:47 UTC)


TAF: missing

Weather observations and forecasts of more than 4000 airports (METAR and TAF reports).

The available stations are represented by yellow and red dots on the map.

Hover mouse over dot to see the name of the station.

Then click to see weather observations and forecasts.

To change the map : click on the green buttons with a black cross to zoom in, on the green button with a dash to zoom out, or on the green arrows for adjacent maps.


METAR-TAF: